createdAt,value
2022-12-13T00:01:14.526Z,-2.60
2022-12-13T00:03:44.959Z,-2.68
2022-12-13T00:06:17.887Z,-2.70
2022-12-13T00:08:48.271Z,-2.74
2022-12-13T00:11:22.601Z,-2.77
2022-12-13T00:13:53.574Z,-2.84
2022-12-13T00:16:27.261Z,-2.97
2022-12-13T00:19:01.015Z,-3.08
2022-12-13T00:21:35.882Z,-3.17
2022-12-13T00:24:09.077Z,-3.23
2022-12-13T00:26:39.871Z,-3.36
2022-12-13T00:29:11.736Z,-3.45
2022-12-13T00:34:33.079Z,-3.53
2022-12-13T00:37:06.226Z,-3.59
2022-12-13T00:39:36.563Z,-3.65
2022-12-13T00:42:07.471Z,-3.66
2022-12-13T00:44:37.904Z,-3.67
2022-12-13T00:47:08.473Z,-3.69
2022-12-13T00:49:38.818Z,-3.77
2022-12-13T00:52:12.070Z,-3.81
2022-12-13T00:54:42.390Z,-3.84
2022-12-13T00:57:12.768Z,-3.86
2022-12-13T00:59:43.103Z,-3.90
2022-12-13T01:02:13.447Z,-3.99
2022-12-13T01:04:43.792Z,-4.03
2022-12-13T01:07:16.719Z,-4.06
2022-12-13T01:09:47.163Z,-4.12
2022-12-13T01:12:17.533Z,-4.18
2022-12-13T01:14:50.673Z,-4.28
2022-12-13T01:17:25.022Z,-4.33
2022-12-13T01:19:55.486Z,-4.44
2022-12-13T01:22:28.402Z,-4.53
2022-12-13T01:24:58.639Z,-4.59
2022-12-13T01:27:28.941Z,-4.53
2022-12-13T01:29:59.290Z,-4.60
2022-12-13T01:32:29.630Z,-4.63
2022-12-13T01:34:59.979Z,-4.68
2022-12-13T01:37:32.932Z,-4.69
2022-12-13T01:40:15.958Z,-4.69
2022-12-13T01:42:47.346Z,-4.71
2022-12-13T01:45:28.837Z,-4.63
2022-12-13T01:48:03.501Z,-4.68
2022-12-13T01:50:39.076Z,-4.61
2022-12-13T01:53:17.487Z,-4.56
2022-12-13T01:55:50.883Z,-4.60
2022-12-13T01:58:21.988Z,-4.51
2022-12-13T02:00:53.452Z,-4.48
2022-12-13T02:03:25.251Z,-4.48
2022-12-13T02:06:02.839Z,-4.46
2022-12-13T02:08:36.780Z,-4.46
2022-12-13T02:11:08.339Z,-4.46
2022-12-13T02:13:42.371Z,-4.40
2022-12-13T02:16:24.492Z,-4.42
2022-12-13T02:19:20.219Z,-4.43
2022-12-13T02:22:03.547Z,-4.39
2022-12-13T02:25:03.703Z,-4.37
2022-12-13T02:28:31.276Z,-4.40
2022-12-13T02:31:10.321Z,-4.49
2022-12-13T02:33:54.057Z,-4.55
2022-12-13T02:36:36.417Z,-4.64
2022-12-13T02:39:14.446Z,-4.64
2022-12-13T02:41:51.671Z,-4.63
2022-12-13T02:44:26.195Z,-4.65
2022-12-13T02:47:03.248Z,-4.62
2022-12-13T02:49:40.522Z,-4.74
2022-12-13T02:52:12.582Z,-4.82
2022-12-13T02:54:43.155Z,-4.90
2022-12-13T02:57:35.542Z,-4.94
2022-12-13T03:00:13.151Z,-4.99
2022-12-13T03:03:02.199Z,-5.03
2022-12-13T03:05:57.492Z,-5.09
2022-12-13T03:08:34.221Z,-5.10
2022-12-13T03:11:11.329Z,-5.11
2022-12-13T03:13:51.474Z,-5.11
2022-12-13T03:16:33.943Z,-5.11
2022-12-13T03:19:11.088Z,-5.10
2022-12-13T03:21:47.639Z,-5.14
2022-12-13T03:24:21.560Z,-5.19
2022-12-13T03:26:53.340Z,-5.23
2022-12-13T03:29:25.482Z,-5.23
2022-12-13T03:31:56.932Z,-5.23
2022-12-13T03:34:43.658Z,-5.21
2022-12-13T03:37:16.276Z,-5.24
2022-12-13T03:39:46.792Z,-5.27
2022-12-13T03:42:17.875Z,-5.28
2022-12-13T03:44:48.284Z,-5.27
2022-12-13T03:47:19.244Z,-5.25
2022-12-13T03:49:54.087Z,-5.29
2022-12-13T03:52:24.823Z,-5.27
2022-12-13T03:54:55.174Z,-5.29
2022-12-13T03:57:25.611Z,-5.45
2022-12-13T03:59:56.020Z,-5.57
2022-12-13T04:02:30.800Z,-5.68
2022-12-13T04:05:04.672Z,-5.72
2022-12-13T04:07:34.980Z,-5.71
2022-12-13T04:10:25.417Z,-5.73
2022-12-13T04:13:08.546Z,-5.70
2022-12-13T04:15:38.842Z,-5.65
2022-12-13T04:18:09.913Z,-5.69
2022-12-13T04:20:42.881Z,-5.69
2022-12-13T04:23:13.251Z,-5.71
2022-12-13T04:25:44.439Z,-5.71
2022-12-13T04:28:21.768Z,-5.72
2022-12-13T04:30:54.127Z,-5.75
2022-12-13T04:33:25.173Z,-5.75
2022-12-13T04:35:58.225Z,-5.76
2022-12-13T04:38:28.640Z,-5.77
2022-12-13T04:41:09.664Z,-5.72
2022-12-13T04:43:39.991Z,-5.71
2022-12-13T04:46:10.850Z,-5.67
2022-12-13T04:48:41.274Z,-5.67
2022-12-13T04:51:14.220Z,-5.71
2022-12-13T04:53:44.757Z,-5.71
2022-12-13T04:56:15.256Z,-5.70
2022-12-13T04:58:45.893Z,-5.69
2022-12-13T05:01:17.216Z,-5.69
2022-12-13T05:03:47.764Z,-5.70
2022-12-13T05:06:26.999Z,-5.64
2022-12-13T05:09:00.854Z,-5.63
2022-12-13T05:11:35.367Z,-5.58
2022-12-13T05:14:06.268Z,-5.62
2022-12-13T05:16:36.766Z,-5.64
2022-12-13T05:19:07.174Z,-5.73
2022-12-13T05:21:40.089Z,-5.82
2022-12-13T05:24:11.494Z,-5.89
2022-12-13T05:26:41.753Z,-5.92
2022-12-13T05:29:12.100Z,-5.97
2022-12-13T05:31:43.245Z,-6.01
2022-12-13T05:34:13.709Z,-6.00
2022-12-13T05:36:46.887Z,-5.99
2022-12-13T05:39:28.313Z,-6.04
2022-12-13T05:42:02.832Z,-6.05
2022-12-13T05:44:34.975Z,-6.03
2022-12-13T05:47:05.382Z,-6.04
2022-12-13T05:49:35.976Z,-6.02
2022-12-13T05:52:20.631Z,-6.06
2022-12-13T05:54:51.111Z,-6.10
2022-12-13T05:57:24.170Z,-6.14
2022-12-13T05:59:54.476Z,-6.22
2022-12-13T06:02:26.113Z,-6.24
2022-12-13T06:04:56.503Z,-6.26
2022-12-13T06:07:29.457Z,-6.27
2022-12-13T06:10:10.322Z,-6.29
2022-12-13T06:12:43.288Z,-6.34
2022-12-13T06:15:21.927Z,-6.38
2022-12-13T06:17:53.394Z,-6.41
2022-12-13T06:20:24.803Z,-6.44
2022-12-13T06:22:57.918Z,-6.46
2022-12-13T06:25:31.474Z,-6.45
2022-12-13T06:28:02.626Z,-6.48
2022-12-13T06:30:33.665Z,-6.50
2022-12-13T06:33:04.098Z,-6.50
2022-12-13T06:35:39.624Z,-6.53
2022-12-13T06:38:14.508Z,-6.55
2022-12-13T06:41:11.247Z,-6.59
2022-12-13T06:43:44.787Z,-6.59
2022-12-13T06:46:16.081Z,-6.59
2022-12-13T06:48:46.477Z,-6.60
2022-12-13T06:51:22.874Z,-6.62
2022-12-13T06:54:05.659Z,-6.66
2022-12-13T06:56:36.340Z,-6.72
2022-12-13T06:59:06.796Z,-6.76
2022-12-13T07:01:37.984Z,-6.77
2022-12-13T07:04:30.306Z,-6.72
2022-12-13T07:07:01.905Z,-6.72
2022-12-13T07:09:36.308Z,-6.75
2022-12-13T07:12:07.123Z,-6.76
2022-12-13T07:14:40.462Z,-6.73
2022-12-13T07:17:11.504Z,-6.76
2022-12-13T07:19:41.893Z,-6.76
2022-12-13T07:22:12.329Z,-6.69
2022-12-13T07:24:45.403Z,-6.63
2022-12-13T07:27:15.677Z,-6.62
2022-12-13T07:29:46.214Z,-6.62
2022-12-13T07:32:16.735Z,-6.57
2022-12-13T07:34:47.157Z,-6.54
2022-12-13T07:37:30.549Z,-6.49
2022-12-13T07:40:04.933Z,-6.42
2022-12-13T07:42:35.769Z,-6.38
2022-12-13T07:45:07.183Z,-6.29
2022-12-13T07:47:40.908Z,-6.17
2022-12-13T07:50:24.108Z,-6.11
2022-12-13T07:52:56.483Z,-6.08
2022-12-13T07:55:33.244Z,-6.06
2022-12-13T07:58:10.469Z,-6.01
2022-12-13T08:00:46.550Z,-5.95
2022-12-13T08:03:25.189Z,-5.84
2022-12-13T08:06:03.002Z,-5.72
2022-12-13T08:08:34.465Z,-5.68
2022-12-13T08:11:10.911Z,-5.61
2022-12-13T08:13:43.570Z,-5.57
2022-12-13T08:16:27.070Z,-5.46
2022-12-13T08:19:01.597Z,-5.33
2022-12-13T08:24:30.448Z,-5.02
2022-12-13T08:27:05.865Z,-4.84
2022-12-13T08:29:37.553Z,-4.77
2022-12-13T08:32:09.900Z,-4.63
2022-12-13T08:34:41.376Z,-4.32
2022-12-13T08:37:12.298Z,-4.17
2022-12-13T08:39:43.021Z,-4.12
2022-12-13T08:42:20.172Z,-3.98
2022-12-13T08:44:52.692Z,-3.82
2022-12-13T08:47:26.550Z,-3.72
2022-12-13T08:50:02.413Z,-3.61
2022-12-13T08:52:39.824Z,-3.18
2022-12-13T08:55:17.429Z,-3.04
2022-12-13T08:57:51.965Z,-2.67
2022-12-13T09:00:23.548Z,-2.45
2022-12-13T09:02:54.324Z,-2.34
2022-12-13T09:05:34.231Z,-2.37
2022-12-13T09:08:24.770Z,-2.16
2022-12-13T09:11:11.237Z,-1.97
2022-12-13T09:14:01.413Z,-1.63
2022-12-13T09:16:35.686Z,-1.31
2022-12-13T09:19:26.235Z,-0.51
2022-12-13T09:22:02.322Z,0.44
2022-12-13T09:24:35.999Z,1.18
2022-12-13T09:27:09.760Z,1.66
2022-12-13T09:29:43.097Z,2.04
2022-12-13T09:32:13.479Z,1.91
2022-12-13T09:34:46.285Z,1.91
2022-12-13T09:37:23.141Z,2.20
2022-12-13T09:39:54.802Z,2.28
2022-12-13T09:42:30.479Z,2.14
2022-12-13T09:45:22.424Z,1.95
2022-12-13T09:48:01.078Z,1.72
2022-12-13T09:50:38.691Z,1.69
2022-12-13T09:53:11.944Z,1.70
2022-12-13T09:55:54.320Z,1.63
2022-12-13T09:58:41.090Z,1.75
2022-12-13T10:01:23.044Z,1.76
2022-12-13T10:03:55.529Z,1.89
2022-12-13T10:06:31.623Z,2.39
2022-12-13T10:09:04.822Z,2.94
2022-12-13T10:11:35.453Z,3.42
2022-12-13T10:14:09.146Z,3.80
2022-12-13T10:16:49.561Z,4.03
2022-12-13T10:19:29.408Z,3.98
2022-12-13T10:22:02.880Z,3.62
2022-12-13T10:24:52.163Z,3.30
2022-12-13T10:27:28.777Z,3.13
2022-12-13T10:30:13.672Z,3.08
2022-12-13T10:32:56.542Z,3.12
2022-12-13T10:35:34.553Z,3.11
2022-12-13T10:38:06.858Z,3.25
2022-12-13T10:40:40.534Z,3.48
2022-12-13T10:43:15.430Z,3.59
2022-12-13T10:45:47.174Z,3.58
2022-12-13T10:48:28.771Z,3.54
2022-12-13T10:51:06.843Z,3.52
2022-12-13T10:53:46.939Z,3.61
2022-12-13T10:56:23.108Z,3.98
2022-12-13T10:59:17.508Z,4.06
2022-12-13T11:01:48.370Z,4.07
2022-12-13T11:04:31.155Z,4.03
2022-12-13T11:07:05.095Z,4.18
2022-12-13T11:09:38.293Z,4.52
2022-12-13T11:12:18.511Z,5.16
2022-12-13T11:14:57.090Z,6.13
2022-12-13T11:17:30.235Z,6.90
2022-12-13T11:20:08.485Z,7.57
2022-12-13T11:22:41.746Z,8.20
2022-12-13T11:25:23.477Z,9.08
2022-12-13T11:28:37.526Z,10.10
2022-12-13T11:31:14.370Z,11.04
2022-12-13T11:33:57.027Z,11.92
2022-12-13T11:36:41.732Z,12.24
2022-12-13T11:39:27.617Z,12.69
2022-12-13T11:42:04.288Z,13.32
2022-12-13T11:44:48.491Z,13.53
2022-12-13T11:47:26.341Z,14.22
2022-12-13T11:49:57.563Z,14.42
2022-12-13T11:52:38.524Z,14.41
2022-12-13T11:55:19.472Z,13.81
2022-12-13T11:57:59.040Z,12.45
2022-12-13T12:00:37.274Z,10.91
2022-12-13T12:03:20.118Z,9.91
2022-12-13T12:05:56.142Z,9.14
2022-12-13T12:08:39.557Z,8.36
2022-12-13T12:11:20.411Z,7.64
2022-12-13T12:13:57.933Z,7.18
2022-12-13T12:16:39.005Z,6.73
2022-12-13T12:19:16.970Z,6.71
2022-12-13T12:22:18.628Z,7.31
2022-12-13T12:25:04.125Z,7.88
2022-12-13T12:27:44.049Z,8.66
2022-12-13T12:30:22.880Z,9.35
2022-12-13T12:33:05.622Z,10.65
2022-12-13T12:36:02.089Z,12.40
2022-12-13T12:39:05.881Z,13.60
2022-12-13T12:41:54.339Z,14.82
2022-12-13T12:44:44.849Z,15.44
2022-12-13T12:48:03.613Z,15.79
2022-12-13T12:50:31.872Z,16.00
2022-12-13T12:53:19.950Z,16.08
2022-12-13T12:55:59.308Z,16.36
2022-12-13T12:58:41.451Z,16.64
2022-12-13T13:01:33.459Z,16.35
2022-12-13T13:04:12.352Z,15.85
2022-12-13T13:06:49.325Z,15.79
2022-12-13T13:09:24.651Z,15.19
2022-12-13T13:11:57.546Z,14.07
2022-12-13T13:14:37.409Z,13.08
2022-12-13T13:17:50.364Z,12.22
2022-12-13T13:20:26.490Z,10.86
2022-12-13T13:23:38.967Z,9.50
2022-12-13T13:26:24.270Z,8.24
2022-12-13T13:28:48.949Z,7.29
2022-12-13T13:31:22.074Z,6.48
2022-12-13T13:33:53.924Z,6.16
2022-12-13T13:36:52.580Z,5.89
2022-12-13T13:39:59.959Z,5.43
2022-12-13T13:42:32.070Z,4.65
2022-12-13T13:45:28.221Z,4.29
2022-12-13T13:48:25.085Z,4.02
2022-12-13T13:52:08.504Z,3.65
2022-12-13T13:55:25.914Z,3.38
2022-12-13T13:58:25.584Z,3.32
2022-12-13T14:01:28.939Z,3.22
2022-12-13T14:04:56.103Z,3.37
2022-12-13T14:08:04.712Z,3.62
2022-12-13T14:10:54.088Z,3.81
2022-12-13T14:14:22.266Z,3.99
2022-12-13T14:17:34.546Z,3.70
2022-12-13T14:20:39.941Z,2.98
2022-12-13T14:23:21.827Z,2.42
2022-12-13T14:26:14.906Z,1.99
2022-12-13T14:28:52.456Z,1.61
2022-12-13T14:31:27.250Z,1.39
2022-12-13T14:34:01.223Z,1.13
2022-12-13T14:36:36.524Z,0.93
2022-12-13T14:39:24.679Z,0.78
2022-12-13T14:41:58.773Z,0.63
2022-12-13T14:44:31.668Z,0.45
2022-12-13T14:47:05.486Z,0.32
2022-12-13T14:49:39.917Z,0.28
2022-12-13T14:52:26.911Z,0.18
2022-12-13T14:55:00.375Z,0.07
2022-12-13T14:57:33.564Z,-0.02
2022-12-13T15:00:25.895Z,-0.11
2022-12-13T15:02:59.945Z,-0.30
2022-12-13T15:05:37.100Z,-0.52
2022-12-13T15:08:12.007Z,-0.65
2022-12-13T15:10:48.458Z,-0.72
2022-12-13T15:13:33.686Z,-0.85
2022-12-13T15:16:10.747Z,-1.05
2022-12-13T15:18:50.682Z,-1.14
2022-12-13T15:21:33.091Z,-1.29
2022-12-13T15:24:15.207Z,-1.47
2022-12-13T15:27:02.925Z,-1.54
2022-12-13T15:29:37.847Z,-1.58
2022-12-13T15:32:16.359Z,-1.58
2022-12-13T15:34:46.713Z,-1.69
2022-12-13T15:37:28.973Z,-1.83
2022-12-13T15:40:10.906Z,-2.03
2022-12-13T15:42:47.723Z,-2.17
2022-12-13T15:45:29.188Z,-2.17
2022-12-13T15:48:03.626Z,-2.40
2022-12-13T15:50:41.047Z,-2.53
2022-12-13T15:53:27.575Z,-2.64
2022-12-13T15:56:04.826Z,-2.60
2022-12-13T15:58:40.813Z,-2.69
2022-12-13T16:01:27.770Z,-2.83
2022-12-13T16:03:58.294Z,-2.91
2022-12-13T16:06:30.200Z,-2.96
2022-12-13T16:09:03.814Z,-3.09
2022-12-13T16:11:50.022Z,-3.23
2022-12-13T16:14:49.721Z,-3.31
2022-12-13T16:17:28.382Z,-3.49
2022-12-13T16:20:06.150Z,-3.52
2022-12-13T16:22:40.046Z,-3.53
2022-12-13T16:25:12.755Z,-3.48
2022-12-13T16:27:46.213Z,-3.46
2022-12-13T16:30:25.854Z,-3.43
2022-12-13T16:33:18.115Z,-3.42
2022-12-13T16:35:46.790Z,-3.45
2022-12-13T16:38:26.358Z,-3.46
2022-12-13T16:40:59.233Z,-3.49
2022-12-13T16:43:35.292Z,-3.53
2022-12-13T16:47:14.998Z,-3.62
2022-12-13T16:48:58.310Z,-3.68
2022-12-13T16:51:28.649Z,-3.68
2022-12-13T16:53:58.923Z,-3.68
2022-12-13T16:56:29.310Z,-3.70
2022-12-13T16:59:02.155Z,-3.71
2022-12-13T17:01:33.112Z,-3.71
2022-12-13T17:04:10.387Z,-3.72
2022-12-13T17:06:43.674Z,-3.68
2022-12-13T17:09:14.353Z,-3.64
2022-12-13T17:11:45.036Z,-3.75
2022-12-13T17:14:18.124Z,-3.84
2022-12-13T17:16:48.446Z,-3.88
2022-12-13T17:19:18.912Z,-3.90
2022-12-13T17:21:49.213Z,-3.84
2022-12-13T17:24:19.651Z,-3.75
2022-12-13T17:26:54.923Z,-3.73
2022-12-13T17:29:28.669Z,-3.80
2022-12-13T17:32:00.009Z,-3.80
2022-12-13T17:34:30.842Z,-3.80
2022-12-13T17:37:05.650Z,-3.85
2022-12-13T17:39:39.080Z,-3.95
2022-12-13T17:42:09.816Z,-3.99
2022-12-13T17:44:43.204Z,-3.98
2022-12-13T17:47:13.940Z,-3.95
2022-12-13T17:49:44.420Z,-3.83
2022-12-13T17:52:14.869Z,-3.71
2022-12-13T17:54:45.357Z,-3.74
2022-12-13T17:57:15.795Z,-3.79
2022-12-13T17:59:49.096Z,-3.76
2022-12-13T18:02:23.147Z,-3.69
2022-12-13T18:04:53.520Z,-3.69
2022-12-13T18:07:24.046Z,-3.65
2022-12-13T18:09:54.406Z,-3.67
2022-12-13T18:12:24.666Z,-3.61
2022-12-13T18:14:57.643Z,-3.56
2022-12-13T18:17:46.533Z,-3.49
2022-12-13T18:20:18.751Z,-3.45
2022-12-13T18:22:51.514Z,-3.42
2022-12-13T18:25:22.117Z,-3.45
2022-12-13T18:27:57.499Z,-3.48
2022-12-13T18:30:34.306Z,-3.42
2022-12-13T18:33:05.439Z,-3.42
2022-12-13T18:35:36.127Z,-3.38
2022-12-13T18:38:06.567Z,-3.40
2022-12-13T18:40:38.427Z,-3.57
2022-12-13T18:43:08.765Z,-3.62
2022-12-13T18:45:41.774Z,-3.62
2022-12-13T18:48:12.711Z,-3.58
2022-12-13T18:50:48.632Z,-3.59
2022-12-13T18:53:19.526Z,-3.54
2022-12-13T18:55:49.930Z,-3.58
2022-12-13T18:58:20.224Z,-3.61
2022-12-13T19:00:53.528Z,-3.65
2022-12-13T19:03:24.424Z,-3.71
2022-12-13T19:05:55.270Z,-3.79
2022-12-13T19:08:26.540Z,-3.81
2022-12-13T19:10:57.552Z,-3.75
2022-12-13T19:13:29.085Z,-3.87
2022-12-13T19:16:09.642Z,-3.78
2022-12-13T19:18:40.337Z,-3.70
2022-12-13T19:21:15.741Z,-3.60
2022-12-13T19:23:53.178Z,-3.57
2022-12-13T19:26:28.434Z,-3.59
2022-12-13T19:29:00.687Z,-3.55
2022-12-13T19:31:33.899Z,-3.56
2022-12-13T19:34:05.289Z,-3.59
2022-12-13T19:36:35.615Z,-3.66
2022-12-13T19:39:06.048Z,-3.72
2022-12-13T19:41:36.804Z,-3.72
2022-12-13T19:44:08.085Z,-3.68
2022-12-13T19:46:40.869Z,-3.62
2022-12-13T19:49:13.259Z,-3.68
2022-12-13T19:51:43.725Z,-3.71
2022-12-13T19:54:14.264Z,-3.75
2022-12-13T19:56:44.643Z,-3.80
2022-12-13T19:59:15.306Z,-3.74
2022-12-13T20:01:48.733Z,-3.62
2022-12-13T20:04:19.315Z,-3.50
2022-12-13T20:06:49.719Z,-3.41
2022-12-13T20:09:20.055Z,-3.34
2022-12-13T20:11:50.351Z,-3.29
2022-12-13T20:14:20.619Z,-3.30
2022-12-13T20:16:53.660Z,-3.22
2022-12-13T20:19:23.894Z,-3.20
2022-12-13T20:21:57.113Z,-3.19
2022-12-13T20:24:27.665Z,-3.15
2022-12-13T20:26:58.048Z,-3.14
2022-12-13T20:29:28.639Z,-3.13
2022-12-13T20:32:02.631Z,-3.10
2022-12-13T20:34:33.147Z,-3.10
2022-12-13T20:37:04.985Z,-3.09
2022-12-13T20:39:35.371Z,-3.08
2022-12-13T20:42:05.891Z,-3.02
2022-12-13T20:44:36.376Z,-3.04
2022-12-13T20:47:09.795Z,-2.99
2022-12-13T20:49:40.572Z,-2.99
2022-12-13T20:52:11.089Z,-2.99
2022-12-13T20:54:41.496Z,-3.03
2022-12-13T20:57:11.923Z,-3.12
2022-12-13T20:59:42.326Z,-3.10
2022-12-13T21:02:16.687Z,-3.07
2022-12-13T21:04:47.031Z,-3.05
2022-12-13T21:07:37.448Z,-3.10
2022-12-13T21:10:09.102Z,-3.17
2022-12-13T21:12:39.413Z,-3.15
2022-12-13T21:15:11.624Z,-3.15
2022-12-13T21:17:44.684Z,-3.18
2022-12-13T21:20:14.999Z,-3.17
2022-12-13T21:22:46.307Z,-3.13
2022-12-13T21:25:16.452Z,-3.15
2022-12-13T21:27:48.454Z,-3.14
2022-12-13T21:30:18.875Z,-3.12
2022-12-13T21:32:53.078Z,-3.09
2022-12-13T21:35:23.415Z,-3.12
2022-12-13T21:37:53.699Z,-3.14
2022-12-13T21:40:25.750Z,-3.11
2022-12-13T21:42:56.029Z,-3.15
2022-12-13T21:45:26.455Z,-3.16
2022-12-13T21:47:59.345Z,-3.15
2022-12-13T21:50:29.678Z,-3.13
2022-12-13T21:53:00.015Z,-3.07
2022-12-13T21:55:38.989Z,-3.08
2022-12-13T21:58:24.594Z,-2.99
2022-12-13T22:00:55.276Z,-3.00
2022-12-13T22:03:28.629Z,-3.00
2022-12-13T22:05:59.015Z,-3.05
2022-12-13T22:08:29.790Z,-3.02
2022-12-13T22:11:16.418Z,-2.97
2022-12-13T22:13:51.411Z,-2.97
2022-12-13T22:16:21.745Z,-3.02
2022-12-13T22:18:57.275Z,-2.99
2022-12-13T22:21:27.960Z,-2.98
2022-12-13T22:23:59.152Z,-2.99
2022-12-13T22:26:29.914Z,-3.04
2022-12-13T22:29:01.300Z,-3.02
2022-12-13T22:31:32.085Z,-2.92
2022-12-13T22:34:05.151Z,-3.00
2022-12-13T22:36:35.790Z,-2.97
2022-12-13T22:39:07.148Z,-2.89
2022-12-13T22:41:37.380Z,-2.80
2022-12-13T22:44:08.254Z,-2.83
2022-12-13T22:46:38.637Z,-2.80
2022-12-13T22:49:12.535Z,-2.77
2022-12-13T22:51:43.585Z,-2.76
2022-12-13T22:54:14.315Z,-2.72
2022-12-13T22:56:44.732Z,-2.67
2022-12-13T22:59:15.035Z,-2.71
2022-12-13T23:01:47.427Z,-2.71
2022-12-13T23:04:20.739Z,-2.66
2022-12-13T23:06:51.097Z,-2.71
2022-12-13T23:09:22.215Z,-2.65
2022-12-13T23:12:04.928Z,-2.69
2022-12-13T23:14:37.147Z,-2.70
2022-12-13T23:17:07.746Z,-2.71
2022-12-13T23:19:51.047Z,-2.68
2022-12-13T23:22:25.632Z,-2.72
2022-12-13T23:24:56.554Z,-2.66
2022-12-13T23:27:27.553Z,-2.64
2022-12-13T23:29:57.917Z,-2.64
2022-12-13T23:32:28.510Z,-2.62
2022-12-13T23:35:01.663Z,-2.61
2022-12-13T23:37:32.011Z,-2.57
2022-12-13T23:40:02.398Z,-2.60
2022-12-13T23:42:33.012Z,-2.60
2022-12-13T23:45:03.424Z,-2.55
2022-12-13T23:47:33.928Z,-2.57
2022-12-13T23:50:07.470Z,-2.57
2022-12-13T23:52:37.843Z,-2.46
2022-12-13T23:55:10.236Z,-2.46
2022-12-13T23:57:40.657Z,-2.49
